Kremlin, MT (59532)

4:18 AM MDT on October 25, 2014 (GMT -0600)
Havre City-County | Change Station
CLOSE
Current Station
Airport
Location: Havre,
Elevation: 2598 ft
Nearby Weather Stations

Elev 2598 ft 48.54 °N, 109.76 °W | Updated 25 minutes ago

Mostly Cloudy
Mostly Cloudy
42 °F
Feels Like 39 °F
N
5
Wind Variable Wind from ENE

Today
High -- | Low -- °F
--% Chance of Precip.
Yesterday
High -- | Low -- °F
Precip. -- in
7:55 AM 6:12 PM
New Moon, 2% visible
Pressure 30.09 in
Visibility 10.0 miles
Clouds Mostly Cloudy 8500 ft
Overcast 10000 ft
Windchill 39 °F
Dew Point 34 °F
Humidity 73%
Rainfall 0.00 in
Snow Depth Not available.
UV 0 out of 12
Pollen 3.20 out of 12
Air Quality Not available.
Flu Activity No Activity
METAR KHVR 250953Z AUTO 07004KT 10SM BKN085 OVC100 06/01 A3007 RMK AO2 SLP190 T00560011

More Conditions Fewer Conditions

Pressure 30.09 in
Visibility 10.0 miles
Clouds Mostly Cloudy 8500 ft
Overcast 10000 ft
Windchill 39 °F
Dew Point 34 °F
Humidity 73%
Rainfall 0.00 in
Snow Depth Not available.
UV 0 out of 12
Pollen 3.20 out of 12
Air Quality Not available.
Flu Activity No Activity
METAR KHVR 250953Z AUTO 07004KT 10SM BKN085 OVC100 06/01 A3007 RMK AO2 SLP190 T00560011

More Conditions Fewer Conditions

10-Day Weather Forecast

Almanac

Astronomy

Oct. 25, 2014 Rise Set
Actual Time 7:55 AM MDT 6:12 PM MDT
Civil Twilight 7:23 AM MDT 6:44 PM MDT
Nautical Twilight 6:46 AM MDT 7:21 PM MDT
Astronomical Twilight 6:10 AM MDT 7:57 PM MDT
Moon 9:44 AM MDT 7:30 PM MDT
Length of Visible Light 11h 21m
Length of Day
10h 16m
Tomorrow will be 3m 19s shorter.
New Moon, 2% of the Moon is Illuminated
Today
New Moon
Oct 30
First Quarter
Nov 6
Full
Nov 14
Last Quarter
Nov 22
New

Today's Extremes

State Highs State Lows

Community

WunderPhotos

Upload Photos

1,764,796 photos uploaded!

Nearby

Snow Depth

Station Depth Elevation
Rocky Boy 0 in 4700 ft
Stringer Creek 0 in 6550 ft
Deadman Creek 0 in 6450 ft
Crystal Lake 1 in 6050 ft
Daisy Peak 0 in 7600 ft

Earthquake Activity

City Distance Mag. Time & Date
No recent earthquake activity has been reported nearby.
Minimum magnitude displayed is 2.5.

Coastal Water Temperatures

Place Temperature
No Stations Reporting

Nearby Weather Stations